sensor_id;sensor_type;location;lat;lon;timestamp;pressure;altitude;pressure_sealevel;temperature;humidity
75438;BME280;64015;49.392;15.582;2023-02-02T00:00:36;95324.91;;;-0.12;100.00
75438;BME280;64015;49.392;15.582;2023-02-02T00:03:22;95322.59;;;-0.20;100.00
75438;BME280;64015;49.392;15.582;2023-02-02T00:05:50;95323.75;;;-0.16;100.00
75438;BME280;64015;49.392;15.582;2023-02-02T00:08:17;95294.56;;;-0.29;100.00
75438;BME280;64015;49.392;15.582;2023-02-02T00:10:44;95304.28;;;-0.25;100.00
75438;BME280;64015;49.392;15.582;2023-02-02T00:13:11;95315.81;;;-0.21;100.00
75438;BME280;64015;49.392;15.582;2023-02-02T00:15:37;95305.72;;;-0.29;100.00
75438;BME280;64015;49.392;15.582;2023-02-02T00:18:04;95316.28;;;-0.30;100.00
75438;BME280;64015;49.392;15.582;2023-02-02T00:20:29;95302.94;;;-0.34;100.00
75438;BME280;64015;49.392;15.582;2023-02-02T00:22:56;95320.34;;;-0.41;100.00
75438;BME280;64015;49.392;15.582;2023-02-02T00:25:22;95306.44;;;-0.47;100.00
75438;BME280;64015;49.392;15.582;2023-02-02T00:27:48;95322.25;;;-0.30;100.00
75438;BME280;64015;49.392;15.582;2023-02-02T00:30:13;95293.25;;;-0.45;100.00
75438;BME280;64015;49.392;15.582;2023-02-02T00:32:39;95323.78;;;-0.22;100.00
75438;BME280;64015;49.392;15.582;2023-02-02T00:35:06;95321.25;;;-0.29;100.00
75438;BME280;64015;49.392;15.582;2023-02-02T00:37:33;95331.19;;;-0.26;100.00
75438;BME280;64015;49.392;15.582;2023-02-02T00:39:59;95343.16;;;-0.25;100.00
75438;BME280;64015;49.392;15.582;2023-02-02T00:42:25;95350.50;;;-0.22;100.00
75438;BME280;64015;49.392;15.582;2023-02-02T00:44:50;95344.34;;;-0.27;100.00
75438;BME280;64015;49.392;15.582;2023-02-02T00:47:35;95342.16;;;-0.24;100.00
75438;BME280;64015;49.392;15.582;2023-02-02T00:50:00;95341.56;;;-0.26;100.00
75438;BME280;64015;49.392;15.582;2023-02-02T00:52:26;95331.66;;;-0.35;100.00
75438;BME280;64015;49.392;15.582;2023-02-02T00:54:52;95349.97;;;-0.30;100.00
75438;BME280;64015;49.392;15.582;2023-02-02T00:57:18;95346.53;;;-0.24;100.00
75438;BME280;64015;49.392;15.582;2023-02-02T00:59:43;95333.69;;;-0.38;100.00
75438;BME280;64015;49.392;15.582;2023-02-02T01:02:10;95369.06;;;-0.25;100.00
75438;BME280;64015;49.392;15.582;2023-02-02T01:04:36;95365.66;;;-0.25;100.00
75438;BME280;64015;49.392;15.582;2023-02-02T01:07:02;95369.44;;;-0.21;100.00
75438;BME280;64015;49.392;15.582;2023-02-02T01:09:27;95367.97;;;-0.11;100.00
75438;BME280;64015;49.392;15.582;2023-02-02T01:11:53;95359.22;;;-0.10;100.00
75438;BME280;64015;49.392;15.582;2023-02-02T01:14:19;95367.22;;;-0.18;100.00
75438;BME280;64015;49.392;15.582;2023-02-02T01:16:44;95350.56;;;-0.28;100.00
75438;BME280;64015;49.392;15.582;2023-02-02T01:19:14;95348.44;;;-0.13;100.00
75438;BME280;64015;49.392;15.582;2023-02-02T01:21:40;95355.22;;;-0.12;100.00
75438;BME280;64015;49.392;15.582;2023-02-02T01:24:06;95356.63;;;-0.16;100.00
75438;BME280;64015;49.392;15.582;2023-02-02T01:26:32;95370.34;;;-0.09;100.00
75438;BME280;64015;49.392;15.582;2023-02-02T01:28:57;95357.16;;;-0.08;100.00
75438;BME280;64015;49.392;15.582;2023-02-02T01:31:23;95318.34;;;-0.46;100.00
75438;BME280;64015;49.392;15.582;2023-02-02T01:33:49;95364.41;;;-0.16;100.00
75438;BME280;64015;49.392;15.582;2023-02-02T01:36:18;95330.50;;;-0.46;100.00
75438;BME280;64015;49.392;15.582;2023-02-02T01:38:44;95315.78;;;-0.46;100.00
75438;BME280;64015;49.392;15.582;2023-02-02T01:41:13;95312.31;;;-0.33;100.00
75438;BME280;64015;49.392;15.582;2023-02-02T01:46:25;95363.22;;;-0.14;100.00
75438;BME280;64015;49.392;15.582;2023-02-02T01:48:52;95372.38;;;-0.11;100.00
75438;BME280;64015;49.392;15.582;2023-02-02T01:51:21;95338.22;;;-0.33;100.00
75438;BME280;64015;49.392;15.582;2023-02-02T01:53:50;95316.16;;;-0.42;100.00
75438;BME280;64015;49.392;15.582;2023-02-02T01:56:28;95278.88;;;-0.72;100.00
75438;BME280;64015;49.392;15.582;2023-02-02T01:58:56;95365.06;;;-0.21;100.00
75438;BME280;64015;49.392;15.582;2023-02-02T02:01:22;95362.94;;;-0.30;100.00
75438;BME280;64015;49.392;15.582;2023-02-02T02:03:48;95336.75;;;-0.54;100.00
75438;BME280;64015;49.392;15.582;2023-02-02T02:06:17;95360.03;;;-0.47;100.00
75438;BME280;64015;49.392;15.582;2023-02-02T02:08:50;95361.03;;;-0.48;100.00
75438;BME280;64015;49.392;15.582;2023-02-02T02:11:18;95387.31;;;-0.45;100.00
75438;BME280;64015;49.392;15.582;2023-02-02T02:13:47;95372.16;;;-0.41;100.00
75438;BME280;64015;49.392;15.582;2023-02-02T02:28:51;95373.63;;;-0.20;100.00
75438;BME280;64015;49.392;15.582;2023-02-02T02:37:02;95391.13;;;-0.16;100.00
75438;BME280;64015;49.392;15.582;2023-02-02T02:39:49;95383.34;;;-0.16;100.00
75438;BME280;64015;49.392;15.582;2023-02-02T02:42:21;95362.63;;;-0.16;100.00
75438;BME280;64015;49.392;15.582;2023-02-02T02:44:48;95346.25;;;-0.41;100.00
75438;BME280;64015;49.392;15.582;2023-02-02T02:47:16;95285.00;;;-0.60;100.00
75438;BME280;64015;49.392;15.582;2023-02-02T02:49:45;95369.59;;;-0.16;100.00
75438;BME280;64015;49.392;15.582;2023-02-02T02:52:11;95370.59;;;-0.17;100.00
75438;BME280;64015;49.392;15.582;2023-02-02T02:54:41;95310.28;;;-0.56;100.00
75438;BME280;64015;49.392;15.582;2023-02-02T03:11:00;95384.88;;;-0.02;100.00
75438;BME280;64015;49.392;15.582;2023-02-02T03:13:29;95351.19;;;-0.33;100.00
75438;BME280;64015;49.392;15.582;2023-02-02T03:15:56;95373.44;;;-0.25;100.00
75438;BME280;64015;49.392;15.582;2023-02-02T03:18:25;95368.25;;;-0.19;100.00
75438;BME280;64015;49.392;15.582;2023-02-02T03:20:52;95378.91;;;-0.09;100.00
75438;BME280;64015;49.392;15.582;2023-02-02T03:23:17;95378.75;;;-0.14;100.00
75438;BME280;64015;49.392;15.582;2023-02-02T03:25:43;95370.31;;;-0.03;100.00
75438;BME280;64015;49.392;15.582;2023-02-02T03:28:09;95354.03;;;-0.16;100.00
75438;BME280;64015;49.392;15.582;2023-02-02T03:30:35;95366.38;;;-0.12;100.00
75438;BME280;64015;49.392;15.582;2023-02-02T03:33:01;95368.81;;;-0.17;100.00
75438;BME280;64015;49.392;15.582;2023-02-02T03:35:27;95363.22;;;-0.14;100.00
75438;BME280;64015;49.392;15.582;2023-02-02T03:37:52;95372.16;;;-0.10;100.00
75438;BME280;64015;49.392;15.582;2023-02-02T03:40:18;95380.16;;;-0.11;100.00
75438;BME280;64015;49.392;15.582;2023-02-02T03:42:44;95364.22;;;-0.15;100.00
75438;BME280;64015;49.392;15.582;2023-02-02T03:45:10;95381.34;;;-0.14;100.00
75438;BME280;64015;49.392;15.582;2023-02-02T03:47:36;95381.19;;;-0.19;100.00
75438;BME280;64015;49.392;15.582;2023-02-02T03:50:01;95378.59;;;-0.19;100.00
75438;BME280;64015;49.392;15.582;2023-02-02T03:52:27;95370.84;;;-0.25;100.00
75438;BME280;64015;49.392;15.582;2023-02-02T03:54:53;95373.25;;;-0.24;100.00
75438;BME280;64015;49.392;15.582;2023-02-02T03:57:18;95364.06;;;-0.20;100.00
75438;BME280;64015;49.392;15.582;2023-02-02T03:59:44;95363.06;;;-0.25;100.00
75438;BME280;64015;49.392;15.582;2023-02-02T04:02:10;95364.94;;;-0.32;100.00
75438;BME280;64015;49.392;15.582;2023-02-02T04:04:35;95343.00;;;-0.37;100.00
75438;BME280;64015;49.392;15.582;2023-02-02T04:07:01;95368.97;;;-0.12;100.00
75438;BME280;64015;49.392;15.582;2023-02-02T04:09:27;95378.72;;;-0.07;100.00
75438;BME280;64015;49.392;15.582;2023-02-02T04:11:53;95384.47;;;-0.05;100.00
75438;BME280;64015;49.392;15.582;2023-02-02T04:14:19;95376.72;;;-0.05;100.00
75438;BME280;64015;49.392;15.582;2023-02-02T04:16:45;95369.56;;;-0.10;100.00
75438;BME280;64015;49.392;15.582;2023-02-02T04:19:10;95352.84;;;-0.14;100.00
75438;BME280;64015;49.392;15.582;2023-02-02T04:21:39;95364.81;;;-0.13;100.00
75438;BME280;64015;49.392;15.582;2023-02-02T04:24:06;95382.75;;;-0.11;100.00
75438;BME280;64015;49.392;15.582;2023-02-02T04:26:34;95392.59;;;0.05;99.24
75438;BME280;64015;49.392;15.582;2023-02-02T04:29:00;95396.19;;;0.04;98.79
75438;BME280;64015;49.392;15.582;2023-02-02T04:31:25;95379.09;;;-0.04;99.54
75438;BME280;64015;49.392;15.582;2023-02-02T04:33:51;95387.66;;;-0.03;99.79
75438;BME280;64015;49.392;15.582;2023-02-02T04:36:17;95391.06;;;-0.03;99.98
75438;BME280;64015;49.392;15.582;2023-02-02T04:38:43;95374.53;;;-0.08;100.00
75438;BME280;64015;49.392;15.582;2023-02-02T04:41:10;95385.53;;;-0.13;100.00
75438;BME280;64015;49.392;15.582;2023-02-02T04:43:36;95394.69;;;-0.10;100.00
75438;BME280;64015;49.392;15.582;2023-02-02T04:46:02;95405.81;;;-0.03;99.52
75438;BME280;64015;49.392;15.582;2023-02-02T04:48:29;95392.66;;;-0.08;100.00
75438;BME280;64015;49.392;15.582;2023-02-02T04:51:03;95378.59;;;-0.19;100.00
75438;BME280;64015;49.392;15.582;2023-02-02T04:53:29;95385.00;;;-0.21;100.00
75438;BME280;64015;49.392;15.582;2023-02-02T04:55:55;95371.56;;;-0.43;100.00
75438;BME280;64015;49.392;15.582;2023-02-02T04:58:21;95397.56;;;-0.25;100.00
75438;BME280;64015;49.392;15.582;2023-02-02T05:00:47;95403.00;;;-0.33;100.00
75438;BME280;64015;49.392;15.582;2023-02-02T05:03:12;95395.06;;;-0.38;100.00
75438;BME280;64015;49.392;15.582;2023-02-02T05:05:38;95394.13;;;-0.50;100.00
75438;BME280;64015;49.392;15.582;2023-02-02T05:08:04;95396.19;;;-0.27;100.00
75438;BME280;64015;49.392;15.582;2023-02-02T05:10:32;95386.09;;;-0.42;100.00
75438;BME280;64015;49.392;15.582;2023-02-02T05:12:58;95402.59;;;-0.30;100.00
75438;BME280;64015;49.392;15.582;2023-02-02T05:15:24;95391.69;;;-0.39;100.00
75438;BME280;64015;49.392;15.582;2023-02-02T05:17:50;95399.81;;;-0.35;100.00
75438;BME280;64015;49.392;15.582;2023-02-02T05:20:16;95411.13;;;-0.23;100.00
75438;BME280;64015;49.392;15.582;2023-02-02T05:22:42;95399.41;;;-0.32;100.00
75438;BME280;64015;49.392;15.582;2023-02-02T05:25:08;95395.63;;;-0.36;100.00
75438;BME280;64015;49.392;15.582;2023-02-02T05:27:34;95413.13;;;-0.25;100.00
75438;BME280;64015;49.392;15.582;2023-02-02T05:30:00;95418.91;;;-0.23;100.00
75438;BME280;64015;49.392;15.582;2023-02-02T05:32:26;95424.66;;;-0.21;100.00
75438;BME280;64015;49.392;15.582;2023-02-02T05:34:54;95405.53;;;-0.26;100.00
75438;BME280;64015;49.392;15.582;2023-02-02T05:37:20;95420.63;;;-0.17;100.00
75438;BME280;64015;49.392;15.582;2023-02-02T05:39:45;95407.53;;;-0.22;98.82
75438;BME280;64015;49.392;15.582;2023-02-02T05:42:11;95395.78;;;-0.24;98.13
75438;BME280;64015;49.392;15.582;2023-02-02T05:44:37;95408.69;;;-0.18;96.14
75438;BME280;64015;49.392;15.582;2023-02-02T05:47:02;95422.19;;;-0.09;96.16
75438;BME280;64015;49.392;15.582;2023-02-02T05:49:28;95418.59;;;-0.08;95.55
75438;BME280;64015;49.392;15.582;2023-02-02T05:51:55;95432.56;;;-0.09;95.92
75438;BME280;64015;49.392;15.582;2023-02-02T05:54:22;95417.25;;;-0.11;94.96
75438;BME280;64015;49.392;15.582;2023-02-02T05:56:50;95446.09;;;-0.01;95.09
75438;BME280;64015;49.392;15.582;2023-02-02T05:59:16;95430.16;;;-0.04;94.66
75438;BME280;64015;49.392;15.582;2023-02-02T06:01:43;95427.38;;;-0.09;93.33
75438;BME280;64015;49.392;15.582;2023-02-02T06:04:09;95446.88;;;0.00;92.86
75438;BME280;64015;49.392;15.582;2023-02-02T06:06:35;95439.13;;;-0.07;94.79
75438;BME280;64015;49.392;15.582;2023-02-02T06:09:02;95453.69;;;-0.06;95.63
75438;BME280;64015;49.392;15.582;2023-02-02T06:11:28;95436.19;;;-0.17;94.58
75438;BME280;64015;49.392;15.582;2023-02-02T06:13:54;95450.69;;;-0.09;94.18
75438;BME280;64015;49.392;15.582;2023-02-02T06:16:20;95456.03;;;0.03;93.63
75438;BME280;64015;49.392;15.582;2023-02-02T06:18:45;95459.22;;;0.05;93.16
75438;BME280;64015;49.392;15.582;2023-02-02T06:21:11;95450.69;;;-0.03;92.78
75438;BME280;64015;49.392;15.582;2023-02-02T06:23:37;95461.97;;;0.10;91.38
75438;BME280;64015;49.392;15.582;2023-02-02T06:26:03;95459.59;;;0.08;92.63
75438;BME280;64015;49.392;15.582;2023-02-02T06:28:30;95464.78;;;0.08;92.40
75438;BME280;64015;49.392;15.582;2023-02-02T06:30:56;95456.47;;;-0.01;91.95
75438;BME280;64015;49.392;15.582;2023-02-02T06:33:27;95450.88;;;-0.04;92.03
75438;BME280;64015;49.392;15.582;2023-02-02T06:35:57;95448.09;;;-0.03;92.04
75438;BME280;64015;49.392;15.582;2023-02-02T06:38:23;95469.78;;;0.03;92.44
75438;BME280;64015;49.392;15.582;2023-02-02T06:40:49;95476.16;;;0.07;92.26
75438;BME280;64015;49.392;15.582;2023-02-02T06:43:14;95453.47;;;-0.04;91.29
75438;BME280;64015;49.392;15.582;2023-02-02T06:45:41;95457.25;;;0.00;92.28
75438;BME280;64015;49.392;15.582;2023-02-02T06:48:06;95467.41;;;0.02;92.18
75438;BME280;64015;49.392;15.582;2023-02-02T06:50:36;95457.03;;;0.02;91.62
75438;BME280;64015;49.392;15.582;2023-02-02T06:53:03;95470.59;;;0.04;91.01
75438;BME280;64015;49.392;15.582;2023-02-02T06:55:29;95459.88;;;-0.07;92.01
75438;BME280;64015;49.392;15.582;2023-02-02T06:57:59;95476.78;;;0.03;93.03
75438;BME280;64015;49.392;15.582;2023-02-02T07:00:26;95455.31;;;-0.11;92.97
75438;BME280;64015;49.392;15.582;2023-02-02T07:02:53;95473.97;;;0.04;93.42
75438;BME280;64015;49.392;15.582;2023-02-02T07:05:19;95475.19;;;0.02;91.76
75438;BME280;64015;49.392;15.582;2023-02-02T07:07:45;95456.28;;;-0.06;91.70
75438;BME280;64015;49.392;15.582;2023-02-02T07:10:11;95468.84;;;-0.03;93.58
75438;BME280;64015;49.392;15.582;2023-02-02T07:12:38;95486.31;;;0.09;92.47
75438;BME280;64015;49.392;15.582;2023-02-02T07:15:04;95489.47;;;0.11;92.30
75438;BME280;64015;49.392;15.582;2023-02-02T07:17:31;95481.38;;;0.00;91.96
75438;BME280;64015;49.392;15.582;2023-02-02T07:19:57;95481.16;;;0.09;93.58
75438;BME280;64015;49.392;15.582;2023-02-02T07:22:23;95497.84;;;0.13;92.94
75438;BME280;64015;49.392;15.582;2023-02-02T07:24:49;95503.84;;;0.13;92.12
75438;BME280;64015;49.392;15.582;2023-02-02T07:27:14;95497.06;;;0.12;92.67
75438;BME280;64015;49.392;15.582;2023-02-02T07:29:41;95489.66;;;0.16;92.59
75438;BME280;64015;49.392;15.582;2023-02-02T07:32:06;95478.13;;;0.12;92.35
75438;BME280;64015;49.392;15.582;2023-02-02T07:34:32;95454.41;;;0.08;91.16
75438;BME280;64015;49.392;15.582;2023-02-02T07:36:57;95483.22;;;0.25;91.26
75438;BME280;64015;49.392;15.582;2023-02-02T07:39:23;95486.81;;;0.24;93.16
75438;BME280;64015;49.392;15.582;2023-02-02T07:41:49;95485.63;;;0.26;90.82
75438;BME280;64015;49.392;15.582;2023-02-02T07:44:15;95481.38;;;0.32;91.35
75438;BME280;64015;49.392;15.582;2023-02-02T07:46:45;95495.09;;;0.39;89.86
75438;BME280;64015;49.392;15.582;2023-02-02T07:49:13;95510.50;;;0.34;91.31
75438;BME280;64015;49.392;15.582;2023-02-02T07:51:39;95502.94;;;0.32;92.07
75438;BME280;64015;49.392;15.582;2023-02-02T07:54:05;95513.69;;;0.36;91.23
75438;BME280;64015;49.392;15.582;2023-02-02T07:56:31;95510.88;;;0.37;91.27
75438;BME280;64015;49.392;15.582;2023-02-02T07:58:57;95501.53;;;0.30;93.99
75438;BME280;64015;49.392;15.582;2023-02-02T08:01:24;95505.38;;;0.21;92.78
75438;BME280;64015;49.392;15.582;2023-02-02T08:03:51;95525.06;;;0.35;92.92
75438;BME280;64015;49.392;15.582;2023-02-02T08:06:21;95526.06;;;0.34;93.27
75438;BME280;64015;49.392;15.582;2023-02-02T08:08:47;95541.22;;;0.37;93.09
75438;BME280;64015;49.392;15.582;2023-02-02T08:11:14;95513.91;;;0.28;93.33
75438;BME280;64015;49.392;15.582;2023-02-02T08:13:41;95533.66;;;0.35;93.90
75438;BME280;64015;49.392;15.582;2023-02-02T08:16:08;95510.09;;;0.37;92.73
75438;BME280;64015;49.392;15.582;2023-02-02T08:18:35;95537.19;;;0.41;92.82
75438;BME280;64015;49.392;15.582;2023-02-02T08:21:02;95511.25;;;0.41;93.17
75438;BME280;64015;49.392;15.582;2023-02-02T08:23:28;95530.69;;;0.57;92.23
75438;BME280;64015;49.392;15.582;2023-02-02T08:26:16;95538.72;;;0.55;92.04
75438;BME280;64015;49.392;15.582;2023-02-02T08:28:46;95542.84;;;0.63;91.83
75438;BME280;64015;49.392;15.582;2023-02-02T08:31:21;95546.28;;;0.57;92.09
75438;BME280;64015;49.392;15.582;2023-02-02T08:33:47;95549.66;;;0.57;91.86
75438;BME280;64015;49.392;15.582;2023-02-02T08:36:15;95545.91;;;0.53;92.28
75438;BME280;64015;49.392;15.582;2023-02-02T08:38:41;95562.28;;;0.54;92.36
75438;BME280;64015;49.392;15.582;2023-02-02T08:41:09;95549.31;;;0.47;92.11
75438;BME280;64015;49.392;15.582;2023-02-02T08:43:35;95544.13;;;0.54;92.76
75438;BME280;64015;49.392;15.582;2023-02-02T08:46:02;95567.56;;;0.65;92.51
75438;BME280;64015;49.392;15.582;2023-02-02T08:48:28;95569.59;;;0.63;92.31
75438;BME280;64015;49.392;15.582;2023-02-02T08:50:57;95565.56;;;0.67;92.01
75438;BME280;64015;49.392;15.582;2023-02-02T08:53:25;95556.16;;;0.73;91.82
75438;BME280;64015;49.392;15.582;2023-02-02T08:56:02;95567.69;;;0.77;87.96
75438;BME280;64015;49.392;15.582;2023-02-02T08:58:29;95569.28;;;0.78;89.09
75438;BME280;64015;49.392;15.582;2023-02-02T09:01:03;95555.56;;;0.71;90.58
75438;BME280;64015;49.392;15.582;2023-02-02T09:03:29;95555.06;;;0.56;91.30
75438;BME280;64015;49.392;15.582;2023-02-02T09:05:55;95569.34;;;0.71;92.21
75438;BME280;64015;49.392;15.582;2023-02-02T09:08:21;95583.66;;;0.81;91.54
75438;BME280;64015;49.392;15.582;2023-02-02T09:10:47;95581.06;;;0.81;92.19
75438;BME280;64015;49.392;15.582;2023-02-02T09:13:13;95582.81;;;0.87;91.13
75438;BME280;64015;49.392;15.582;2023-02-02T09:15:38;95578.22;;;0.89;91.17
75438;BME280;64015;49.392;15.582;2023-02-02T09:18:04;95582.75;;;0.93;90.07
75438;BME280;64015;49.392;15.582;2023-02-02T09:20:30;95611.13;;;0.95;88.97
75438;BME280;64015;49.392;15.582;2023-02-02T09:22:56;95589.97;;;0.91;90.16
75438;BME280;64015;49.392;15.582;2023-02-02T09:25:23;95568.69;;;0.83;89.34
75438;BME280;64015;49.392;15.582;2023-02-02T09:27:50;95581.88;;;1.06;88.40
75438;BME280;64015;49.392;15.582;2023-02-02T09:30:16;95609.81;;;1.10;88.53
75438;BME280;64015;49.392;15.582;2023-02-02T09:32:42;95574.66;;;1.08;87.73
75438;BME280;64015;49.392;15.582;2023-02-02T09:35:09;95608.03;;;1.11;87.87
75438;BME280;64015;49.392;15.582;2023-02-02T09:37:36;95595.78;;;1.18;85.36
75438;BME280;64015;49.392;15.582;2023-02-02T09:40:01;95593.75;;;1.20;86.50
75438;BME280;64015;49.392;15.582;2023-02-02T09:42:36;95615.28;;;1.27;86.98
75438;BME280;64015;49.392;15.582;2023-02-02T09:45:14;95582.41;;;1.15;87.45
75438;BME280;64015;49.392;15.582;2023-02-02T09:47:59;95608.06;;;1.29;86.65
75438;BME280;64015;49.392;15.582;2023-02-02T09:50:55;95590.44;;;1.31;87.44
75438;BME280;64015;49.392;15.582;2023-02-02T09:53:46;95601.94;;;1.42;87.85
75438;BME280;64015;49.392;15.582;2023-02-02T09:56:29;95611.53;;;1.41;87.51
75438;BME280;64015;49.392;15.582;2023-02-02T09:58:59;95603.34;;;1.44;87.18
75438;BME280;64015;49.392;15.582;2023-02-02T10:01:30;95608.84;;;1.55;87.08
75438;BME280;64015;49.392;15.582;2023-02-02T10:04:13;95630.59;;;1.78;84.96
75438;BME280;64015;49.392;15.582;2023-02-02T10:06:42;95593.59;;;1.58;85.60
75438;BME280;64015;49.392;15.582;2023-02-02T10:14:37;95626.28;;;2.75;79.29
75438;BME280;64015;49.392;15.582;2023-02-02T10:19:52;95609.75;;;3.23;75.10
75438;BME280;64015;49.392;15.582;2023-02-02T10:22:22;95615.72;;;3.12;76.15
75438;BME280;64015;49.392;15.582;2023-02-02T10:24:49;95619.66;;;3.03;76.20
75438;BME280;64015;49.392;15.582;2023-02-02T10:27:27;95590.88;;;2.97;75.67
75438;BME280;64015;49.392;15.582;2023-02-02T10:30:00;95635.25;;;2.61;78.31
75438;BME280;64015;49.392;15.582;2023-02-02T10:32:32;95617.09;;;2.24;79.84
75438;BME280;64015;49.392;15.582;2023-02-02T10:40:49;95651.06;;;1.75;83.80
75438;BME280;64015;49.392;15.582;2023-02-02T10:49:07;95633.63;;;1.57;85.43
75438;BME280;64015;49.392;15.582;2023-02-02T10:51:35;95626.31;;;1.47;85.42
75438;BME280;64015;49.392;15.582;2023-02-02T10:54:19;95627.44;;;1.52;85.43
75438;BME280;64015;49.392;15.582;2023-02-02T10:56:51;95631.75;;;1.64;85.28
75438;BME280;64015;49.392;15.582;2023-02-02T10:59:25;95638.56;;;1.59;85.41
75438;BME280;64015;49.392;15.582;2023-02-02T11:01:53;95634.25;;;1.53;86.54
75438;BME280;64015;49.392;15.582;2023-02-02T11:04:20;95651.81;;;1.57;87.16
75438;BME280;64015;49.392;15.582;2023-02-02T11:07:05;95638.06;;;1.50;87.93
75438;BME280;64015;49.392;15.582;2023-02-02T11:09:35;95643.38;;;1.37;88.46
75438;BME280;64015;49.392;15.582;2023-02-02T11:12:14;95645.84;;;1.50;87.77
75438;BME280;64015;49.392;15.582;2023-02-02T11:14:46;95640.44;;;1.52;88.14
75438;BME280;64015;49.392;15.582;2023-02-02T11:17:19;95639.84;;;1.49;87.67
75438;BME280;64015;49.392;15.582;2023-02-02T11:19:45;95643.47;;;1.48;88.46
75438;BME280;64015;49.392;15.582;2023-02-02T11:22:28;95651.53;;;1.65;87.07
75438;BME280;64015;49.392;15.582;2023-02-02T11:24:54;95623.50;;;1.67;87.09
75438;BME280;64015;49.392;15.582;2023-02-02T11:27:23;95630.25;;;1.93;85.55
75438;BME280;64015;49.392;15.582;2023-02-02T11:29:54;95658.41;;;1.78;85.38
75438;BME280;64015;49.392;15.582;2023-02-02T11:35:15;95623.75;;;1.84;85.36
75438;BME280;64015;49.392;15.582;2023-02-02T11:40:33;95622.81;;;2.15;84.13
75438;BME280;64015;49.392;15.582;2023-02-02T11:43:04;95618.59;;;2.32;83.35
75438;BME280;64015;49.392;15.582;2023-02-02T11:45:40;95621.16;;;2.20;80.77
75438;BME280;64015;49.392;15.582;2023-02-02T11:48:18;95622.84;;;2.45;81.36
75438;BME280;64015;49.392;15.582;2023-02-02T11:50:52;95616.06;;;2.25;81.61
75438;BME280;64015;49.392;15.582;2023-02-02T11:53:22;95651.06;;;2.30;80.84
75438;BME280;64015;49.392;15.582;2023-02-02T11:55:48;95614.94;;;2.03;81.40
75438;BME280;64015;49.392;15.582;2023-02-02T11:58:22;95569.63;;;2.11;80.26
75438;BME280;64015;49.392;15.582;2023-02-02T12:00:52;95561.75;;;2.47;77.97
75438;BME280;64015;49.392;15.582;2023-02-02T12:05:53;95611.22;;;4.40;69.99
75438;BME280;64015;49.392;15.582;2023-02-02T12:08:20;95623.06;;;5.33;65.57
75438;BME280;64015;49.392;15.582;2023-02-02T12:10:58;95605.47;;;4.83;67.15
75438;BME280;64015;49.392;15.582;2023-02-02T12:13:34;95591.06;;;3.61;70.54
75438;BME280;64015;49.392;15.582;2023-02-02T12:16:29;95614.41;;;3.67;73.74
75438;BME280;64015;49.392;15.582;2023-02-02T12:38:44;95611.50;;;6.18;60.92
75438;BME280;64015;49.392;15.582;2023-02-02T12:44:32;95604.25;;;5.70;60.83
75438;BME280;64015;49.392;15.582;2023-02-02T12:55:22;95606.44;;;4.77;66.05
75438;BME280;64015;49.392;15.582;2023-02-02T12:58:05;95632.66;;;5.44;62.67
75438;BME280;64015;49.392;15.582;2023-02-02T13:11:45;95627.91;;;4.39;66.93
75438;BME280;64015;49.392;15.582;2023-02-02T13:14:20;95625.16;;;3.83;68.84
75438;BME280;64015;49.392;15.582;2023-02-02T13:16:51;95643.16;;;4.19;67.97
75438;BME280;64015;49.392;15.582;2023-02-02T13:22:03;95652.03;;;3.71;71.54
75438;BME280;64015;49.392;15.582;2023-02-02T13:24:33;95644.09;;;3.31;72.39
75438;BME280;64015;49.392;15.582;2023-02-02T13:27:03;95655.81;;;3.11;73.75
75438;BME280;64015;49.392;15.582;2023-02-02T13:29:36;95641.47;;;2.90;75.10
75438;BME280;64015;49.392;15.582;2023-02-02T13:32:20;95648.09;;;3.04;74.70
75438;BME280;64015;49.392;15.582;2023-02-02T13:35:14;95649.34;;;3.02;75.05
75438;BME280;64015;49.392;15.582;2023-02-02T13:37:48;95640.56;;;2.54;76.39
75438;BME280;64015;49.392;15.582;2023-02-02T13:40:26;95622.59;;;2.65;75.28
75438;BME280;64015;49.392;15.582;2023-02-02T13:43:04;95649.00;;;2.68;75.79
75438;BME280;64015;49.392;15.582;2023-02-02T13:45:40;95658.66;;;2.79;75.40
75438;BME280;64015;49.392;15.582;2023-02-02T13:54:14;95654.16;;;3.28;74.60
75438;BME280;64015;49.392;15.582;2023-02-02T14:00:32;95672.06;;;3.36;72.16
75438;BME280;64015;49.392;15.582;2023-02-02T14:02:48;95661.91;;;3.46;72.50
75438;BME280;64015;49.392;15.582;2023-02-02T14:05:24;95657.19;;;3.13;72.30
75438;BME280;64015;49.392;15.582;2023-02-02T14:08:20;95660.13;;;3.05;73.73
75438;BME280;64015;49.392;15.582;2023-02-02T14:13:25;95687.88;;;2.81;74.87
75438;BME280;64015;49.392;15.582;2023-02-02T14:16:23;95687.56;;;2.89;74.48
75438;BME280;64015;49.392;15.582;2023-02-02T14:19:56;95674.00;;;2.69;75.43
75438;BME280;64015;49.392;15.582;2023-02-02T14:34:37;95719.84;;;2.40;78.16
75438;BME280;64015;49.392;15.582;2023-02-02T14:45:41;95731.47;;;2.19;81.22
75438;BME280;64015;49.392;15.582;2023-02-02T14:48:12;95739.69;;;2.16;81.51
75438;BME280;64015;49.392;15.582;2023-02-02T14:50:52;95738.81;;;2.22;80.76
75438;BME280;64015;49.392;15.582;2023-02-02T14:53:32;95732.97;;;2.27;80.97
75438;BME280;64015;49.392;15.582;2023-02-02T14:56:10;95743.19;;;2.29;81.15
75438;BME280;64015;49.392;15.582;2023-02-02T15:03:46;95761.19;;;2.05;81.57
75438;BME280;64015;49.392;15.582;2023-02-02T15:17:06;95764.41;;;1.82;82.56
75438;BME280;64015;49.392;15.582;2023-02-02T15:19:40;95754.06;;;1.76;82.80
75438;BME280;64015;49.392;15.582;2023-02-02T15:30:27;95804.94;;;1.90;83.84
75438;BME280;64015;49.392;15.582;2023-02-02T15:33:29;95805.00;;;1.83;84.35
75438;BME280;64015;49.392;15.582;2023-02-02T15:36:05;95803.19;;;1.84;84.12
75438;BME280;64015;49.392;15.582;2023-02-02T15:38:44;95818.03;;;1.77;84.22
75438;BME280;64015;49.392;15.582;2023-02-02T15:41:31;95755.53;;;1.34;84.50
75438;BME280;64015;49.392;15.582;2023-02-02T15:43:59;95794.41;;;1.54;85.36
75438;BME280;64015;49.392;15.582;2023-02-02T15:46:33;95780.06;;;1.44;85.15
75438;BME280;64015;49.392;15.582;2023-02-02T15:49:23;95826.53;;;1.66;85.22